createdAt,value
2022-12-12T06:30:49.144Z,13.63
2022-12-12T06:33:16.696Z,14.68
2022-12-12T06:35:43.857Z,13.20
2022-12-12T06:38:11.152Z,13.55
2022-12-12T06:40:41.068Z,12.45
2022-12-12T06:43:08.323Z,15.10
2022-12-12T06:45:35.530Z,16.73
2022-12-12T06:48:02.971Z,13.25
2022-12-12T06:50:31.768Z,14.52
2022-12-12T06:52:59.580Z,13.43
2022-12-12T06:55:27.003Z,16.65
2022-12-12T06:57:54.329Z,15.40
2022-12-12T07:00:21.569Z,13.95
2022-12-12T07:02:48.895Z,14.25
2022-12-12T07:05:16.490Z,16.90
2022-12-12T07:07:44.193Z,14.35
2022-12-12T07:10:11.486Z,14.10
2022-12-12T07:12:38.907Z,15.07
2022-12-12T07:15:06.529Z,19.20
2022-12-12T07:17:33.827Z,16.17
2022-12-12T07:20:01.295Z,16.08
2022-12-12T07:22:29.427Z,16.90
2022-12-12T07:24:56.672Z,16.58
2022-12-12T07:27:23.961Z,16.80
2022-12-12T07:29:51.145Z,15.15
2022-12-12T07:32:18.600Z,16.60
2022-12-12T07:34:45.956Z,14.32
2022-12-12T07:37:13.286Z,16.73
2022-12-12T07:39:40.501Z,18.08
2022-12-12T07:42:07.905Z,18.60
2022-12-12T07:44:35.159Z,17.05
2022-12-12T07:47:02.702Z,15.73
2022-12-12T07:49:30.542Z,15.68
2022-12-12T07:51:57.913Z,15.00
2022-12-12T07:54:25.243Z,15.32
2022-12-12T07:56:52.482Z,15.13
2022-12-12T07:59:19.848Z,14.05
2022-12-12T08:01:47.403Z,14.85
2022-12-12T08:04:14.604Z,14.00
2022-12-12T08:06:41.760Z,14.40
2022-12-12T08:09:09.165Z,15.05
2022-12-12T08:11:36.482Z,14.45
2022-12-12T08:14:11.175Z,13.93
2022-12-12T08:16:41.142Z,15.23
2022-12-12T08:19:08.860Z,14.70
2022-12-12T08:21:36.112Z,16.20
2022-12-12T08:24:03.567Z,15.40
2022-12-12T08:26:32.172Z,13.05
2022-12-12T08:29:00.041Z,15.90
2022-12-12T08:31:28.187Z,12.80
2022-12-12T08:33:56.389Z,14.68
2022-12-12T08:36:30.181Z,13.13
2022-12-12T08:38:59.392Z,14.70
2022-12-12T08:41:27.097Z,13.90
2022-12-12T08:43:54.334Z,14.07
2022-12-12T08:46:22.200Z,14.95
2022-12-12T08:48:49.569Z,14.63
2022-12-12T08:51:17.661Z,14.00
2022-12-12T08:53:46.956Z,13.57
2022-12-12T08:56:15.896Z,14.05
2022-12-12T08:58:43.818Z,15.95
2022-12-12T09:01:13.750Z,12.85
2022-12-12T09:03:41.390Z,11.80
2022-12-12T09:06:10.475Z,12.35
2022-12-12T09:08:38.910Z,13.20
2022-12-12T09:11:06.828Z,12.48
2022-12-12T09:13:34.905Z,13.43
2022-12-12T09:16:02.232Z,13.38
2022-12-12T09:18:29.713Z,12.27
2022-12-12T09:20:58.560Z,14.32
2022-12-12T09:23:27.110Z,12.95
2022-12-12T09:25:54.534Z,14.25
2022-12-12T09:28:24.070Z,14.27
2022-12-12T09:30:52.350Z,15.45
2022-12-12T09:33:19.928Z,15.43
2022-12-12T09:35:47.700Z,13.48
2022-12-12T09:38:15.350Z,14.85
2022-12-12T09:40:57.198Z,14.95
2022-12-12T09:43:29.851Z,13.45
2022-12-12T09:48:37.901Z,13.40
2022-12-12T09:51:05.297Z,13.45
2022-12-12T09:53:33.226Z,15.68
2022-12-12T09:56:15.794Z,14.90
2022-12-12T09:58:56.838Z,13.45
2022-12-12T10:01:55.224Z,14.68
2022-12-12T10:07:45.233Z,15.52
2022-12-12T10:10:23.017Z,15.98
2022-12-12T10:12:54.763Z,12.80
2022-12-12T10:15:33.784Z,14.88
2022-12-12T10:18:07.929Z,15.63
2022-12-12T10:20:46.890Z,13.50
2022-12-12T10:23:29.446Z,13.57
2022-12-12T10:26:05.235Z,15.15
2022-12-12T10:28:34.876Z,15.27
2022-12-12T10:31:42.260Z,15.35
2022-12-12T10:34:33.423Z,16.15
2022-12-12T10:37:28.421Z,15.05
2022-12-12T10:40:36.004Z,14.70
2022-12-12T10:43:30.148Z,15.00
2022-12-12T10:49:00.197Z,16.35
2022-12-12T10:51:29.557Z,14.50
2022-12-12T10:53:59.482Z,14.82
2022-12-12T10:56:30.783Z,13.93
2022-12-12T10:59:01.951Z,13.45
2022-12-12T11:04:27.452Z,12.18
2022-12-12T11:06:56.341Z,13.10
2022-12-12T11:09:28.560Z,14.38
2022-12-12T11:12:12.399Z,13.07
2022-12-12T11:14:48.742Z,13.05
2022-12-12T11:17:25.882Z,14.25
2022-12-12T11:19:56.954Z,13.63
2022-12-12T11:22:25.263Z,12.55
2022-12-12T11:24:53.465Z,13.45
2022-12-12T11:27:28.058Z,14.00
2022-12-12T11:30:00.676Z,14.30
2022-12-12T11:32:38.386Z,14.15
2022-12-12T11:35:22.079Z,14.32
2022-12-12T11:37:55.985Z,12.95
2022-12-12T11:40:27.951Z,13.68
2022-12-12T11:43:25.161Z,15.87
2022-12-12T11:51:36.768Z,14.70
2022-12-12T11:54:11.911Z,13.43
2022-12-12T11:57:02.303Z,13.25
2022-12-12T12:02:54.593Z,13.90
2022-12-12T12:05:53.991Z,14.23
2022-12-12T12:11:46.463Z,13.52
2022-12-12T12:14:29.001Z,15.30
2022-12-12T12:20:04.973Z,14.93
2022-12-12T12:22:50.370Z,12.40
2022-12-12T12:25:46.577Z,14.02
2022-12-12T12:28:42.832Z,13.95
2022-12-12T12:31:50.147Z,13.80
2022-12-12T12:34:40.937Z,12.57
2022-12-12T12:37:44.895Z,13.40
2022-12-12T12:40:40.799Z,12.05
2022-12-12T12:43:39.532Z,12.63
2022-12-12T12:46:18.334Z,13.00
2022-12-12T12:48:50.789Z,13.25
2022-12-12T12:51:27.354Z,15.63
2022-12-12T12:54:06.144Z,12.43
2022-12-12T12:56:43.583Z,13.10
2022-12-12T12:59:20.517Z,12.30
2022-12-12T13:01:52.381Z,14.77
2022-12-12T13:04:28.622Z,12.25
2022-12-12T13:07:21.964Z,13.70
2022-12-12T13:12:40.224Z,14.80
2022-12-12T13:15:35.256Z,14.18
2022-12-12T13:18:06.647Z,14.75
2022-12-12T13:20:39.120Z,14.18
2022-12-12T13:23:37.913Z,13.15
2022-12-12T13:26:30.191Z,14.38
2022-12-12T13:31:56.234Z,16.80
2022-12-12T13:34:27.219Z,16.30
2022-12-12T13:36:56.472Z,15.90
2022-12-12T13:39:32.909Z,15.35
2022-12-12T13:42:05.819Z,15.38
2022-12-12T13:44:47.231Z,15.63
2022-12-12T13:55:46.087Z,15.98
2022-12-12T13:58:33.182Z,17.10
2022-12-12T14:01:33.970Z,17.55
2022-12-12T14:04:03.112Z,17.48
2022-12-12T14:06:30.998Z,16.25
2022-12-12T14:08:59.154Z,17.02
2022-12-12T14:11:32.248Z,17.63
2022-12-12T14:14:07.841Z,16.20
2022-12-12T14:16:36.194Z,17.23
2022-12-12T14:19:07.682Z,16.73
2022-12-12T14:21:45.917Z,17.13
2022-12-12T14:24:35.938Z,16.05
2022-12-12T14:27:06.923Z,17.90
2022-12-12T14:29:40.500Z,15.82
2022-12-12T14:32:35.749Z,16.25
2022-12-12T14:35:42.889Z,16.50
2022-12-12T14:38:37.211Z,14.80
2022-12-12T14:41:11.565Z,17.13
2022-12-12T14:43:46.708Z,15.35
2022-12-12T14:46:41.262Z,15.68
2022-12-12T14:49:15.779Z,17.38
2022-12-12T14:51:45.470Z,16.83
2022-12-12T14:54:17.484Z,17.23
2022-12-12T14:56:52.708Z,16.80
2022-12-12T14:59:24.775Z,17.25
2022-12-12T15:01:57.420Z,16.83
2022-12-12T15:07:01.048Z,14.20
2022-12-12T15:09:33.134Z,15.25
2022-12-12T15:12:18.367Z,18.50
2022-12-12T15:17:32.042Z,15.82
2022-12-12T15:20:15.204Z,18.92
2022-12-12T15:23:01.072Z,17.30
2022-12-12T15:25:32.984Z,18.00
2022-12-12T15:28:01.883Z,21.42
2022-12-12T15:30:39.217Z,22.70
2022-12-12T15:33:14.313Z,18.55
2022-12-12T15:35:49.928Z,17.83
2022-12-12T15:38:17.504Z,16.45
2022-12-12T15:40:51.274Z,16.55
2022-12-12T15:43:24.147Z,18.27
2022-12-12T15:45:59.284Z,19.58
2022-12-12T15:48:27.170Z,16.08
2022-12-12T15:50:59.281Z,18.85
2022-12-12T15:53:31.434Z,19.63
2022-12-12T15:58:39.709Z,18.08
2022-12-12T16:06:34.799Z,20.67
2022-12-12T16:11:43.437Z,19.40
2022-12-12T16:14:40.099Z,19.90
2022-12-12T16:17:19.302Z,19.75
2022-12-12T16:19:57.372Z,20.50
2022-12-12T16:25:26.436Z,22.83
2022-12-12T16:28:17.940Z,21.92
2022-12-12T16:30:53.405Z,19.73
2022-12-12T16:33:38.134Z,19.48
2022-12-12T16:36:09.656Z,20.38
2022-12-12T16:38:37.171Z,20.23
2022-12-12T16:41:08.122Z,17.58
2022-12-12T16:43:35.409Z,19.75
2022-12-12T16:46:02.508Z,20.05
2022-12-12T16:48:35.210Z,18.80
2022-12-12T16:53:31.342Z,19.75
2022-12-12T16:55:58.661Z,19.33
2022-12-12T16:58:25.824Z,20.20
